createdAt,value
2023-04-10T00:02:00.536Z,5.67
2023-04-10T00:04:28.515Z,5.74
2023-04-10T00:06:55.482Z,5.78
2023-04-10T00:09:22.043Z,5.68
2023-04-10T00:11:48.586Z,5.69
2023-04-10T00:14:15.061Z,5.87
2023-04-10T00:16:41.649Z,6.02
2023-04-10T00:19:08.604Z,6.06
2023-04-10T00:21:35.048Z,6.14
2023-04-10T00:24:01.553Z,6.17
2023-04-10T00:26:28.123Z,5.81
2023-04-10T00:28:54.568Z,6.04
2023-04-10T00:31:21.104Z,6.03
2023-04-10T00:33:47.664Z,6.03
2023-04-10T00:36:14.272Z,6.14
2023-04-10T00:38:40.842Z,6.33
2023-04-10T00:41:07.310Z,6.20
2023-04-10T00:43:33.817Z,6.04
2023-04-10T00:46:00.833Z,6.08
2023-04-10T00:48:27.808Z,6.11
2023-04-10T00:50:54.364Z,6.14
2023-04-10T00:53:22.048Z,5.97
2023-04-10T00:55:49.508Z,5.65
2023-04-10T00:58:15.991Z,5.60
2023-04-10T01:00:42.480Z,5.75
2023-04-10T01:03:09.390Z,5.87
2023-04-10T01:05:41.921Z,5.87
2023-04-10T01:08:12.733Z,5.87
2023-04-10T01:10:47.845Z,5.75
2023-04-10T01:13:17.407Z,5.88
2023-04-10T01:15:58.771Z,5.90
2023-04-10T01:18:31.667Z,5.82
2023-04-10T01:20:59.294Z,5.89
2023-04-10T01:23:36.121Z,6.04
2023-04-10T01:26:07.228Z,6.08
2023-04-10T01:28:48.207Z,5.80
2023-04-10T01:31:37.789Z,5.83
2023-04-10T01:34:07.493Z,5.82
2023-04-10T01:36:38.031Z,5.63
2023-04-10T01:39:06.853Z,5.64
2023-04-10T01:41:34.285Z,5.60
2023-04-10T01:44:03.914Z,5.51
2023-04-10T01:46:31.131Z,5.56
2023-04-10T01:49:00.591Z,5.58
2023-04-10T01:51:27.865Z,5.61
2023-04-10T01:53:54.881Z,5.51
2023-04-10T01:56:25.277Z,5.65
2023-04-10T01:58:51.875Z,5.51
2023-04-10T02:01:29.183Z,5.15
2023-04-10T02:03:58.135Z,5.09
2023-04-10T02:06:41.237Z,5.02
2023-04-10T02:09:17.677Z,4.90
2023-04-10T02:11:55.027Z,4.73
2023-04-10T02:14:22.277Z,4.24
2023-04-10T02:16:51.741Z,4.38
2023-04-10T02:19:19.686Z,4.49
2023-04-10T02:21:47.129Z,4.53
2023-04-10T02:24:13.751Z,4.51
2023-04-10T02:26:52.719Z,4.31
2023-04-10T02:29:19.472Z,4.12
2023-04-10T02:31:46.698Z,4.18
2023-04-10T02:34:14.020Z,4.14
2023-04-10T02:36:40.680Z,4.04
2023-04-10T02:39:08.665Z,4.03
2023-04-10T02:41:44.444Z,4.07
2023-04-10T02:44:13.128Z,3.77
2023-04-10T02:46:39.807Z,3.95
2023-04-10T02:49:06.683Z,3.80
2023-04-10T02:51:37.080Z,3.82
2023-04-10T02:54:04.856Z,3.64
2023-04-10T02:56:36.041Z,3.62
2023-04-10T02:59:02.608Z,3.68
2023-04-10T03:01:30.823Z,3.69
2023-04-10T03:03:58.446Z,3.55
2023-04-10T03:06:31.435Z,3.48
2023-04-10T03:08:58.483Z,3.23
2023-04-10T03:11:27.012Z,3.45
2023-04-10T03:13:53.990Z,3.14
2023-04-10T03:16:20.839Z,3.23
2023-04-10T03:18:47.802Z,3.29
2023-04-10T03:21:14.406Z,3.19
2023-04-10T03:23:42.071Z,3.12
2023-04-10T03:26:08.697Z,3.13
2023-04-10T03:28:39.556Z,3.15
2023-04-10T03:31:06.528Z,3.10
2023-04-10T03:33:35.945Z,3.19
2023-04-10T03:36:03.787Z,3.04
2023-04-10T03:38:30.310Z,3.01
2023-04-10T03:40:56.910Z,3.05
2023-04-10T03:43:25.560Z,2.68
2023-04-10T03:45:52.047Z,2.62
2023-04-10T03:48:18.576Z,2.51
2023-04-10T03:50:46.721Z,2.44
2023-04-10T03:53:13.407Z,2.63
2023-04-10T03:55:41.079Z,2.40
2023-04-10T03:58:08.215Z,2.59
2023-04-10T04:00:35.853Z,2.25
2023-04-10T04:03:20.357Z,2.33
2023-04-10T04:06:04.253Z,2.47
2023-04-10T04:08:38.793Z,2.61
2023-04-10T04:11:40.697Z,2.76
2023-04-10T04:14:16.361Z,2.75
2023-04-10T04:17:14.970Z,2.92
2023-04-10T04:20:01.830Z,2.80
2023-04-10T04:22:47.125Z,2.78
2023-04-10T04:25:33.861Z,2.78
2023-04-10T04:28:18.889Z,2.74
2023-04-10T04:31:16.254Z,2.40
2023-04-10T04:34:05.363Z,2.21
2023-04-10T04:37:02.960Z,2.40
2023-04-10T04:39:32.100Z,2.53
2023-04-10T04:42:19.764Z,2.44
2023-04-10T04:45:01.915Z,2.69
2023-04-10T04:47:28.424Z,2.51
2023-04-10T04:50:18.764Z,2.55
2023-04-10T04:53:00.516Z,2.57
2023-04-10T04:55:47.153Z,2.61
2023-04-10T04:58:36.626Z,2.73
2023-04-10T05:01:29.409Z,2.95
2023-04-10T05:04:20.684Z,3.20
2023-04-10T05:07:05.706Z,3.22
2023-04-10T05:09:51.032Z,3.18
2023-04-10T05:12:36.187Z,3.41
2023-04-10T05:15:16.574Z,3.34
2023-04-10T05:18:03.520Z,3.54
2023-04-10T05:20:42.673Z,3.60
2023-04-10T05:23:37.353Z,3.71
2023-04-10T05:26:28.867Z,3.84
2023-04-10T05:29:27.660Z,4.05
2023-04-10T05:32:17.333Z,4.38
2023-04-10T05:34:58.129Z,4.66
2023-04-10T05:37:33.316Z,4.98
2023-04-10T05:40:26.344Z,5.19
2023-04-10T05:43:21.991Z,5.75
2023-04-10T05:46:01.492Z,5.83
2023-04-10T05:48:43.032Z,5.84
2023-04-10T05:51:35.766Z,5.75
2023-04-10T05:54:29.294Z,6.09
2023-04-10T05:57:08.862Z,6.13
2023-04-10T05:59:47.215Z,6.25
2023-04-10T06:02:25.938Z,6.41
2023-04-10T06:04:53.060Z,6.36
2023-04-10T06:07:20.048Z,6.93
2023-04-10T06:09:46.506Z,7.37
2023-04-10T06:12:13.020Z,7.49
2023-04-10T06:14:40.688Z,7.39
2023-04-10T06:17:07.693Z,7.59
2023-04-10T06:19:34.262Z,8.06
2023-04-10T06:22:00.915Z,8.10
2023-04-10T06:24:28.486Z,8.58
2023-04-10T06:26:56.854Z,8.97
2023-04-10T06:29:24.029Z,9.21
2023-04-10T06:31:50.665Z,9.18
2023-04-10T06:34:17.277Z,9.66
2023-04-10T06:36:53.398Z,10.05
2023-04-10T06:39:20.462Z,9.67
2023-04-10T06:41:47.820Z,10.07
2023-04-10T06:44:27.875Z,10.51
2023-04-10T06:46:54.530Z,10.44
2023-04-10T06:49:21.112Z,10.60
2023-04-10T06:51:48.441Z,10.28
2023-04-10T06:54:15.009Z,10.93
2023-04-10T06:56:41.486Z,10.76
2023-04-10T06:59:07.971Z,11.24
2023-04-10T07:01:34.528Z,11.71
2023-04-10T07:04:01.287Z,11.54
2023-04-10T07:06:28.352Z,11.77
2023-04-10T07:08:55.085Z,11.86
2023-04-10T07:11:21.807Z,12.34
2023-04-10T07:13:48.765Z,12.53
2023-04-10T07:16:17.024Z,12.80
2023-04-10T07:18:44.298Z,13.38
2023-04-10T07:21:13.247Z,13.46
2023-04-10T07:23:40.057Z,14.30
2023-04-10T07:26:06.688Z,14.77
2023-04-10T07:28:33.336Z,14.73
2023-04-10T07:30:59.912Z,14.95
2023-04-10T07:33:27.139Z,15.23
2023-04-10T07:35:53.690Z,15.16
2023-04-10T07:38:21.044Z,16.16
2023-04-10T07:40:47.725Z,16.29
2023-04-10T07:43:14.218Z,16.92
2023-04-10T07:45:41.047Z,17.12
2023-04-10T07:48:07.781Z,16.15
2023-04-10T07:50:34.351Z,16.53
2023-04-10T07:53:03.552Z,16.90
2023-04-10T07:55:30.385Z,17.42
2023-04-10T07:57:56.805Z,17.05
2023-04-10T08:00:23.352Z,17.18
2023-04-10T08:02:49.939Z,16.41
2023-04-10T08:05:16.720Z,16.29
2023-04-10T08:07:43.354Z,16.78
2023-04-10T08:10:09.971Z,17.56
2023-04-10T08:12:36.486Z,18.38
2023-04-10T08:15:02.990Z,18.19
2023-04-10T08:17:29.513Z,17.09
2023-04-10T08:19:56.311Z,16.32
2023-04-10T08:22:22.886Z,16.50
2023-04-10T08:24:49.350Z,15.98
2023-04-10T08:27:16.372Z,17.92
2023-04-10T08:29:43.256Z,18.55
2023-04-10T08:32:09.775Z,17.12
2023-04-10T08:34:36.250Z,17.67
2023-04-10T08:37:06.384Z,18.41
2023-04-10T08:39:34.826Z,16.76
2023-04-10T08:42:01.878Z,16.29
2023-04-10T08:44:28.502Z,16.17
2023-04-10T08:46:57.759Z,17.11
2023-04-10T08:49:36.488Z,15.80
2023-04-10T08:52:05.811Z,17.03
2023-04-10T08:54:33.197Z,17.93
2023-04-10T08:57:01.573Z,17.71
2023-04-10T08:59:29.857Z,16.09
2023-04-10T09:01:57.432Z,16.17
2023-04-10T09:04:24.964Z,17.72
2023-04-10T09:06:54.448Z,17.26
2023-04-10T09:09:21.312Z,17.99
2023-04-10T09:11:56.967Z,18.22
2023-04-10T09:14:30.623Z,17.71
2023-04-10T09:17:16.676Z,18.77
2023-04-10T09:19:44.330Z,18.18
2023-04-10T09:22:10.920Z,16.65
2023-04-10T09:24:38.884Z,16.69
2023-04-10T09:27:06.003Z,17.11
2023-04-10T09:29:41.405Z,18.99
2023-04-10T09:32:07.903Z,19.80
2023-04-10T09:34:34.328Z,20.18
2023-04-10T09:37:01.707Z,18.98
2023-04-10T09:39:35.762Z,18.68
2023-04-10T09:42:02.447Z,19.16
2023-04-10T09:44:32.744Z,18.89
2023-04-10T09:47:00.225Z,19.37
2023-04-10T09:49:26.839Z,20.63
2023-04-10T09:51:53.513Z,17.73
2023-04-10T09:54:34.873Z,17.42
2023-04-10T09:57:01.482Z,16.54
2023-04-10T09:59:28.072Z,18.32
2023-04-10T10:01:54.635Z,18.06
2023-04-10T10:04:21.477Z,19.21
2023-04-10T10:06:48.215Z,16.64
2023-04-10T10:09:15.362Z,17.51
2023-04-10T10:11:41.913Z,19.70
2023-04-10T10:14:13.176Z,19.58
2023-04-10T10:16:42.580Z,19.86
2023-04-10T10:19:24.601Z,19.79
2023-04-10T10:21:52.157Z,20.72
2023-04-10T10:24:19.919Z,19.46
2023-04-10T10:26:47.196Z,18.67
2023-04-10T10:29:15.591Z,16.44
2023-04-10T10:31:42.507Z,16.96
2023-04-10T10:34:09.792Z,17.28
2023-04-10T10:36:37.025Z,18.33
2023-04-10T10:39:23.009Z,16.53
2023-04-10T10:42:02.157Z,16.68
2023-04-10T10:44:44.073Z,18.55
2023-04-10T10:47:20.649Z,18.87
2023-04-10T10:50:05.446Z,19.18
2023-04-10T10:52:42.654Z,19.60
2023-04-10T10:55:24.745Z,18.17
2023-04-10T10:57:52.312Z,18.59
2023-04-10T11:00:19.545Z,18.37
2023-04-10T11:02:46.264Z,19.37
2023-04-10T11:05:32.756Z,20.29
2023-04-10T11:07:59.256Z,19.16
2023-04-10T11:10:44.331Z,19.41
2023-04-10T11:13:18.182Z,20.15
2023-04-10T11:15:44.824Z,19.22
2023-04-10T11:18:12.125Z,17.79
2023-04-10T11:20:57.491Z,17.14
2023-04-10T11:23:24.120Z,16.46
2023-04-10T11:25:51.896Z,16.83
2023-04-10T11:28:33.699Z,18.06
2023-04-10T11:31:21.730Z,18.15
2023-04-10T11:33:49.313Z,17.53
2023-04-10T11:36:19.610Z,18.90
2023-04-10T11:38:59.989Z,19.66
2023-04-10T11:41:27.770Z,19.45
2023-04-10T11:43:54.310Z,20.44
2023-04-10T11:46:20.997Z,20.38
2023-04-10T11:48:47.575Z,19.28
2023-04-10T11:51:14.703Z,20.51
2023-04-10T11:53:41.526Z,18.21
2023-04-10T11:56:18.414Z,17.93
2023-04-10T11:58:45.072Z,18.92
2023-04-10T12:01:14.423Z,18.61
2023-04-10T12:03:43.955Z,18.35
2023-04-10T12:06:11.495Z,18.96
2023-04-10T12:08:42.047Z,17.89
2023-04-10T12:11:10.177Z,17.98
2023-04-10T12:13:37.044Z,17.16
2023-04-10T12:16:04.851Z,17.44
2023-04-10T12:18:31.523Z,16.90
2023-04-10T12:20:59.369Z,16.94
2023-04-10T12:23:27.015Z,17.20
2023-04-10T12:25:54.259Z,17.16
2023-04-10T12:28:21.505Z,17.33
2023-04-10T12:30:53.990Z,19.09
2023-04-10T12:33:24.117Z,19.92
2023-04-10T12:35:52.027Z,19.90
2023-04-10T12:38:34.740Z,20.46
2023-04-10T12:41:01.414Z,19.76
2023-04-10T12:43:32.522Z,19.88
2023-04-10T12:45:59.392Z,19.69
2023-04-10T12:48:25.931Z,20.48
2023-04-10T12:50:52.437Z,20.49
2023-04-10T12:53:19.060Z,21.06
2023-04-10T12:56:02.309Z,20.31
2023-04-10T12:58:30.933Z,21.34
2023-04-10T13:01:04.896Z,20.01
2023-04-10T13:03:33.355Z,20.09
2023-04-10T13:05:59.924Z,21.56
2023-04-10T13:08:26.600Z,19.63
2023-04-10T13:10:53.141Z,17.96
2023-04-10T13:13:19.714Z,19.34
2023-04-10T13:15:46.218Z,19.07
2023-04-10T13:18:12.800Z,19.14
2023-04-10T13:20:40.261Z,18.57
2023-04-10T13:23:07.612Z,16.80
2023-04-10T13:25:35.581Z,17.57
2023-04-10T13:28:02.142Z,18.83
2023-04-10T13:30:29.128Z,17.79
2023-04-10T13:32:55.784Z,16.67
2023-04-10T13:35:22.391Z,18.42
2023-04-10T13:37:53.023Z,18.67
2023-04-10T13:40:20.289Z,18.80
2023-04-10T13:42:47.280Z,18.27
2023-04-10T13:45:13.948Z,19.53
2023-04-10T13:47:40.467Z,19.88
2023-04-10T13:50:07.348Z,20.02
2023-04-10T13:52:33.815Z,20.22
2023-04-10T13:55:00.286Z,18.34
2023-04-10T13:57:26.737Z,20.27
2023-04-10T13:59:53.535Z,20.33
2023-04-10T14:02:20.191Z,19.42
2023-04-10T14:04:47.544Z,19.54
2023-04-10T14:07:14.021Z,20.40
2023-04-10T14:09:40.719Z,18.90
2023-04-10T14:12:07.251Z,19.15
2023-04-10T14:14:33.878Z,18.50
2023-04-10T14:17:00.599Z,18.55
2023-04-10T14:19:27.161Z,19.30
2023-04-10T14:21:53.585Z,19.17
2023-04-10T14:24:21.374Z,18.51
2023-04-10T14:26:47.789Z,19.10
2023-04-10T14:29:16.186Z,20.31
2023-04-10T14:31:54.871Z,19.78
2023-04-10T14:34:24.316Z,18.59
2023-04-10T14:36:55.554Z,18.72
2023-04-10T14:39:25.559Z,19.50
2023-04-10T14:41:52.079Z,20.32
2023-04-10T14:44:18.538Z,19.83
2023-04-10T14:46:45.905Z,19.85
2023-04-10T14:49:13.033Z,19.58
2023-04-10T14:51:39.568Z,19.73
2023-04-10T14:54:06.123Z,18.86
2023-04-10T14:56:32.961Z,20.07
2023-04-10T14:58:59.380Z,18.96
2023-04-10T15:01:25.933Z,19.37
2023-04-10T15:03:53.451Z,18.64
2023-04-10T15:06:20.392Z,17.56
2023-04-10T15:08:46.973Z,17.45
2023-04-10T15:11:13.447Z,17.12
2023-04-10T15:13:39.939Z,17.63
2023-04-10T15:16:08.059Z,17.91
2023-04-10T15:18:34.601Z,17.91
2023-04-10T15:21:01.030Z,17.40
2023-04-10T15:23:27.515Z,17.70
2023-04-10T15:25:54.804Z,18.55
2023-04-10T15:28:21.330Z,17.12
2023-04-10T15:30:49.714Z,17.71
2023-04-10T15:33:16.967Z,16.84
2023-04-10T15:35:47.749Z,17.10
2023-04-10T15:38:14.241Z,17.39
2023-04-10T15:40:40.715Z,16.99
2023-04-10T15:43:07.218Z,16.10
2023-04-10T15:45:35.532Z,15.77
2023-04-10T15:48:04.260Z,15.97
2023-04-10T15:50:31.076Z,16.01
2023-04-10T15:52:57.536Z,15.69
2023-04-10T15:55:23.980Z,15.53
2023-04-10T15:57:50.507Z,15.49
2023-04-10T16:00:17.167Z,15.50
2023-04-10T16:02:43.829Z,15.60
2023-04-10T16:05:10.781Z,15.37
2023-04-10T16:07:39.005Z,15.21
2023-04-10T16:10:06.009Z,15.11
2023-04-10T16:12:32.501Z,15.20
2023-04-10T16:14:58.902Z,15.23
2023-04-10T16:17:25.425Z,15.04
2023-04-10T16:19:51.898Z,14.85
2023-04-10T16:22:18.410Z,14.56
2023-04-10T16:24:44.847Z,14.75
2023-04-10T16:27:11.347Z,14.59
2023-04-10T16:29:37.828Z,14.34
2023-04-10T16:32:04.333Z,14.33
2023-04-10T16:34:30.921Z,14.26
2023-04-10T16:36:57.444Z,14.28
2023-04-10T16:39:23.885Z,14.32
2023-04-10T16:41:50.309Z,14.19
2023-04-10T16:44:16.824Z,14.11
2023-04-10T16:46:43.414Z,14.00
2023-04-10T16:49:09.871Z,14.03
2023-04-10T16:51:36.541Z,13.97
2023-04-10T16:54:03.735Z,13.95
2023-04-10T16:56:33.267Z,13.78
2023-04-10T16:58:59.727Z,13.79
2023-04-10T17:01:26.465Z,13.78
2023-04-10T17:03:53.517Z,13.67
2023-04-10T17:06:20.080Z,13.59
2023-04-10T17:08:46.515Z,13.60
2023-04-10T17:11:13.165Z,13.50
2023-04-10T17:13:40.389Z,13.46
2023-04-10T17:16:07.566Z,13.27
2023-04-10T17:18:34.062Z,13.13
2023-04-10T17:21:00.613Z,12.77
2023-04-10T17:23:27.035Z,12.45
2023-04-10T17:25:53.583Z,12.20
2023-04-10T17:28:20.195Z,12.32
2023-04-10T17:30:48.345Z,12.07
2023-04-10T17:33:14.861Z,11.98
2023-04-10T17:35:41.801Z,11.91
2023-04-10T17:38:08.444Z,11.75
2023-04-10T17:40:35.125Z,11.50
2023-04-10T17:43:01.674Z,11.52
2023-04-10T17:45:28.152Z,11.52
2023-04-10T17:47:54.743Z,11.25
2023-04-10T17:50:21.343Z,11.32
2023-04-10T17:52:47.803Z,11.26
2023-04-10T17:55:18.408Z,11.15
2023-04-10T17:57:47.448Z,11.05
2023-04-10T18:00:20.011Z,10.85
2023-04-10T18:02:47.918Z,10.79
2023-04-10T18:05:14.798Z,10.70
2023-04-10T18:07:41.305Z,10.58
2023-04-10T18:10:10.592Z,10.52
2023-04-10T18:12:37.751Z,10.59
2023-04-10T18:15:04.432Z,10.55
2023-04-10T18:17:30.936Z,10.40
2023-04-10T18:19:57.537Z,10.36
2023-04-10T18:22:24.029Z,10.21
2023-04-10T18:24:50.576Z,10.25
2023-04-10T18:27:17.048Z,10.14
2023-04-10T18:29:43.508Z,10.06
2023-04-10T18:32:10.003Z,10.19
2023-04-10T18:34:36.502Z,10.15
2023-04-10T18:37:02.976Z,10.07
2023-04-10T18:39:29.442Z,10.15
2023-04-10T18:41:57.674Z,10.01
2023-04-10T18:44:24.177Z,9.98
2023-04-10T18:47:01.236Z,9.93
2023-04-10T18:49:31.053Z,9.90
2023-04-10T18:51:57.527Z,9.85
2023-04-10T18:54:26.934Z,9.85
2023-04-10T18:56:53.538Z,9.75
2023-04-10T18:59:20.084Z,9.58
2023-04-10T19:01:46.712Z,9.54
2023-04-10T19:04:13.310Z,9.47
2023-04-10T19:06:41.018Z,9.42
2023-04-10T19:09:10.520Z,9.25
2023-04-10T19:11:37.523Z,9.19
2023-04-10T19:14:04.027Z,9.02
2023-04-10T19:18:57.934Z,8.75
2023-04-10T19:21:24.506Z,8.65
2023-04-10T19:23:50.961Z,8.52
2023-04-10T19:26:19.816Z,8.50
2023-04-10T19:28:46.446Z,8.41
2023-04-10T19:31:13.080Z,8.52
2023-04-10T19:33:39.663Z,8.57
2023-04-10T19:36:08.162Z,8.54
2023-04-10T19:38:35.086Z,8.51
2023-04-10T19:41:01.563Z,8.66
2023-04-10T19:43:28.100Z,8.62
2023-04-10T19:45:55.113Z,8.61
2023-04-10T19:48:21.607Z,8.49
2023-04-10T19:50:48.129Z,8.48
2023-04-10T19:53:15.590Z,8.33
2023-04-10T19:55:44.118Z,8.02
2023-04-10T19:58:17.023Z,8.06
2023-04-10T20:00:47.434Z,8.19
2023-04-10T20:03:16.120Z,8.05
2023-04-10T20:05:42.898Z,8.07
2023-04-10T20:08:09.363Z,8.06
2023-04-10T20:10:35.907Z,8.02
2023-04-10T20:13:02.349Z,7.86
2023-04-10T20:15:28.829Z,7.90
2023-04-10T20:17:55.277Z,7.90
2023-04-10T20:20:21.916Z,7.90
2023-04-10T20:22:48.590Z,7.79
2023-04-10T20:25:15.406Z,7.58
2023-04-10T20:27:41.868Z,7.60
2023-04-10T20:30:08.557Z,7.58
2023-04-10T20:32:35.101Z,7.41
2023-04-10T20:35:01.564Z,7.31
2023-04-10T20:37:28.057Z,7.25
2023-04-10T20:39:54.540Z,7.14
2023-04-10T20:42:21.058Z,6.89
2023-04-10T20:44:47.604Z,6.98
2023-04-10T20:47:14.097Z,6.89
2023-04-10T20:49:40.716Z,6.94
2023-04-10T20:52:07.271Z,6.94
2023-04-10T20:54:33.901Z,6.97
2023-04-10T20:57:01.697Z,7.01
2023-04-10T20:59:29.068Z,7.00
2023-04-10T21:01:55.610Z,6.79
2023-04-10T21:04:22.319Z,6.85
2023-04-10T21:06:48.796Z,6.90
2023-04-10T21:09:15.295Z,6.76
2023-04-10T21:11:41.819Z,6.80
2023-04-10T21:14:08.515Z,6.63
2023-04-10T21:16:37.439Z,6.66
2023-04-10T21:19:04.007Z,6.61
2023-04-10T21:21:31.144Z,6.53
2023-04-10T21:23:57.673Z,6.53
2023-04-10T21:26:24.139Z,6.34
2023-04-10T21:28:50.715Z,6.18
2023-04-10T21:31:17.180Z,6.15
2023-04-10T21:33:44.226Z,6.14
2023-04-10T21:36:10.825Z,6.12
2023-04-10T21:38:37.433Z,6.00
2023-04-10T21:41:04.107Z,6.11
2023-04-10T21:43:30.643Z,6.09
2023-04-10T21:45:57.089Z,6.12
2023-04-10T21:48:24.743Z,6.19
2023-04-10T21:50:52.784Z,6.02
2023-04-10T21:53:20.340Z,5.93
2023-04-10T21:55:47.213Z,5.83
2023-04-10T21:58:13.666Z,5.67
2023-04-10T22:00:41.497Z,5.49
2023-04-10T22:03:09.699Z,5.72
2023-04-10T22:05:36.386Z,5.57
2023-04-10T22:08:02.820Z,5.61
2023-04-10T22:10:29.256Z,5.44
2023-04-10T22:12:55.811Z,5.57
2023-04-10T22:15:22.522Z,5.66
2023-04-10T22:17:49.104Z,5.61
2023-04-10T22:20:16.094Z,5.70
2023-04-10T22:22:42.541Z,5.80
2023-04-10T22:25:09.229Z,5.83
2023-04-10T22:27:35.701Z,5.62
2023-04-10T22:30:03.941Z,5.63
2023-04-10T22:32:31.630Z,5.69
2023-04-10T22:34:59.021Z,5.43
2023-04-10T22:37:25.899Z,5.40
2023-04-10T22:39:52.431Z,5.45
2023-04-10T22:42:18.922Z,5.46
2023-04-10T22:44:45.568Z,5.24
2023-04-10T22:47:13.861Z,5.38
2023-04-10T22:49:40.612Z,5.47
2023-04-10T22:52:07.083Z,5.42
2023-04-10T22:54:33.547Z,5.42
2023-04-10T22:57:00.274Z,5.33
2023-04-10T22:59:26.727Z,5.29
2023-04-10T23:01:53.229Z,5.29
2023-04-10T23:04:19.862Z,5.24
2023-04-10T23:06:46.610Z,5.07
2023-04-10T23:09:13.111Z,5.08
2023-04-10T23:11:39.584Z,5.01
2023-04-10T23:14:06.097Z,5.07
2023-04-10T23:16:32.577Z,5.06
2023-04-10T23:18:59.064Z,5.02
2023-04-10T23:21:25.600Z,4.92
2023-04-10T23:23:52.047Z,4.89
2023-04-10T23:26:19.393Z,5.01
2023-04-10T23:28:45.939Z,4.86
2023-04-10T23:31:12.539Z,4.75
2023-04-10T23:33:39.010Z,4.94
2023-04-10T23:36:05.969Z,4.97
2023-04-10T23:38:32.528Z,5.01
2023-04-10T23:40:59.000Z,5.09
2023-04-10T23:43:25.759Z,4.90
2023-04-10T23:45:52.202Z,4.96
2023-04-10T23:48:18.712Z,4.90
2023-04-10T23:50:45.192Z,4.84
2023-04-10T23:53:13.988Z,4.76
2023-04-10T23:55:41.476Z,4.84
2023-04-10T23:58:08.052Z,4.81
